Time;durP1;ratioP1;P1;durP2;ratioP2;P2;SDS_P1;SDS_P2;PMS_P1;PMS_P2;Temp;Humidity;BMP_temperature;BMP_pressure;BME280_temperature;BME280_humidity;BME280_pressure;Samples;Min_cycle;Max_cycle;Signal;HPM_P1;HPM_P2
2020/12/26 00:01:22;;;;;;;5.78;4.35;;;2.80;79.30;;;1.76;64.13;95127.81;5065435;28;20221;-82
2020/12/26 00:03:49;;;;;;;4.97;4.30;;;2.90;79.30;;;1.76;64.20;95125.25;5092862;28;20674;-81
2020/12/26 00:06:21;;;;;;;4.80;4.32;;;2.80;79.30;;;1.77;63.88;95123.50;5070302;28;20676;-81
2020/12/26 00:08:53;;;;;;;5.38;4.63;;;2.80;79.40;;;1.77;64.16;95118.31;5057781;28;20256;-80
2020/12/26 00:11:21;;;;;;;5.95;4.47;;;2.80;79.40;;;1.80;63.83;95125.00;5058789;28;20195;-81
2020/12/26 00:13:49;;;;;;;6.40;4.43;;;2.80;79.40;;;1.82;63.92;95131.66;5091071;28;20215;-80
2020/12/26 00:16:17;;;;;;;5.30;4.57;;;2.80;79.40;;;1.83;64.22;95135.88;5057789;28;20206;-81
2020/12/26 00:18:45;;;;;;;5.05;4.55;;;2.90;79.50;;;1.84;63.94;95141.88;5071405;28;20291;-81
2020/12/26 00:21:16;;;;;;;5.45;4.55;;;2.80;79.40;;;1.88;63.67;95146.66;5080901;28;20203;-81
2020/12/26 00:23:44;;;;;;;5.95;4.18;;;2.90;79.50;;;1.90;63.97;95149.94;5074780;28;20213;-81
2020/12/26 00:26:15;;;;;;;5.20;4.18;;;2.90;79.50;;;1.92;63.86;95147.22;5071368;28;20206;-81
2020/12/26 00:28:43;;;;;;;4.78;3.85;;;2.90;79.50;;;1.95;64.17;95136.56;5054589;28;20211;-81
2020/12/26 00:31:17;;;;;;;5.05;4.05;;;2.90;79.50;;;1.97;64.05;95144.22;5073478;28;20217;-81
2020/12/26 00:33:44;;;;;;;5.72;4.10;;;2.90;79.50;;;1.99;64.00;95150.06;5075159;28;20666;-80
2020/12/26 00:36:10;;;;;;;6.30;4.30;;;3.00;79.60;;;1.98;64.04;95143.25;5038090;28;20234;-80
2020/12/26 00:38:37;;;;;;;5.40;4.78;;;3.10;79.60;;;2.01;64.26;95148.19;5054921;28;20195;-80
2020/12/26 00:41:04;;;;;;;5.40;4.45;;;3.00;79.60;;;2.01;64.00;95151.56;5074089;28;20259;-80
2020/12/26 00:43:31;;;;;;;4.68;4.07;;;3.00;79.60;;;2.01;63.79;95153.34;5074222;28;20708;-81
2020/12/26 00:45:57;;;;;;;5.97;4.78;;;3.00;79.60;;;2.01;63.93;95143.00;5074459;28;20221;-81
2020/12/26 00:48:24;;;;;;;5.97;4.45;;;3.00;79.60;;;2.01;63.95;95148.97;5057968;28;20232;-81
2020/12/26 00:50:51;;;;;;;6.13;4.47;;;3.00;79.50;;;1.98;63.92;95144.09;5073852;28;20736;-81
2020/12/26 00:53:18;;;;;;;5.32;4.57;;;3.00;79.50;;;2.01;64.13;95143.81;5070522;28;20215;-81
2020/12/26 00:55:46;;;;;;;5.47;4.55;;;3.00;79.50;;;2.02;64.27;95149.81;5084364;28;20597;-81
2020/12/26 00:58:13;;;;;;;6.03;4.85;;;3.00;79.50;;;1.97;64.06;95142.44;5090951;28;20218;-80
2020/12/26 01:00:40;;;;;;;6.20;4.53;;;3.00;79.50;;;1.98;64.10;95133.75;5068947;28;20692;-81
2020/12/26 01:03:30;;;;;;;5.68;4.60;;;3.00;79.50;;;2.00;64.02;95149.97;5071220;28;20215;-80
2020/12/26 01:05:57;;;;;;;5.63;4.55;;;3.00;79.50;;;2.00;63.96;95149.97;5070504;28;20239;-81
2020/12/26 01:08:24;;;;;;;8.05;5.00;;;3.10;79.60;;;2.02;64.01;95150.63;5057624;28;20199;-81
2020/12/26 01:10:51;;;;;;;5.82;4.80;;;3.00;79.50;;;2.00;64.41;95149.13;5073571;28;20222;-81
2020/12/26 01:13:18;;;;;;;5.80;4.47;;;3.00;79.60;;;2.06;64.02;95158.94;5077845;28;20218;-80
2020/12/26 01:15:45;;;;;;;6.22;4.50;;;3.10;79.60;;;2.02;64.05;95158.38;5094717;28;20501;-80
2020/12/26 01:18:12;;;;;;;5.72;4.80;;;3.10;79.60;;;2.07;64.23;95166.56;5077236;28;20210;-81
2020/12/26 01:20:39;;;;;;;6.43;4.60;;;3.10;79.60;;;2.07;64.42;95168.34;5094486;28;20575;-81
2020/12/26 01:23:06;;;;;;;6.13;5.13;;;3.10;79.60;;;2.07;64.21;95170.94;5094618;28;20187;-81
2020/12/26 01:25:32;;;;;;;6.93;4.70;;;3.10;79.60;;;2.08;64.11;95172.56;5094605;28;20299;-80
2020/12/26 01:27:59;;;;;;;5.97;4.63;;;3.10;79.60;;;2.08;64.22;95175.16;5060751;28;20282;-80
2020/12/26 01:30:26;;;;;;;5.32;4.82;;;3.20;79.70;;;2.02;64.16;95171.31;5060707;28;20222;-81
2020/12/26 01:32:53;;;;;;;6.97;4.82;;;3.10;79.70;;;2.05;64.49;95173.66;5077268;28;20662;-80
2020/12/26 01:35:20;;;;;;;5.43;4.85;;;3.10;79.60;;;2.04;64.07;95179.78;5060857;28;20684;-81
2020/12/26 01:37:47;;;;;;;6.30;5.00;;;3.10;79.60;;;2.02;64.42;95170.50;5077318;28;20282;-80
2020/12/26 01:40:14;;;;;;;6.47;4.80;;;3.10;79.60;;;2.05;64.19;95168.47;5060285;28;20222;-80
2020/12/26 01:42:41;;;;;;;6.40;4.95;;;3.00;79.60;;;2.05;64.23;95178.00;5060596;28;20730;-80
2020/12/26 01:45:08;;;;;;;6.13;4.40;;;3.10;79.60;;;2.04;64.09;95173.78;5060678;28;20372;-81
2020/12/26 01:47:36;;;;;;;6.35;4.85;;;3.10;79.60;;;2.04;64.29;95166.03;5092204;28;20230;-80
2020/12/26 01:50:14;;;;;;;5.85;4.68;;;3.10;79.60;;;2.04;63.85;95166.03;5063908;28;20276;-80
2020/12/26 01:52:42;;;;;;;6.20;4.90;;;3.00;79.60;;;2.05;64.30;95167.63;5077358;28;20211;-81
2020/12/26 01:55:11;;;;;;;6.25;4.53;;;3.10;79.60;;;2.06;64.40;95171.88;5060402;28;20234;-80
2020/12/26 01:57:51;;;;;;;7.60;4.80;;;3.10;79.60;;;2.04;64.15;95177.19;5077440;28;20199;-81
2020/12/26 02:00:19;;;;;;;5.82;5.07;;;3.10;79.60;;;2.04;64.58;95179.78;5059639;28;20238;-80
2020/12/26 02:02:47;;;;;;;6.65;5.28;;;3.10;79.60;;;2.02;64.45;95178.28;5093668;28;20215;-81
2020/12/26 02:05:15;;;;;;;6.40;4.75;;;3.10;79.60;;;2.01;64.21;95187.78;5060322;28;20218;-80
2020/12/26 02:07:47;;;;;;;7.72;5.22;;;3.10;79.60;;;2.02;64.09;95188.63;5071875;28;20629;-81
2020/12/26 02:10:15;;;;;;;6.95;5.78;;;3.10;79.60;;;2.00;64.11;95188.75;5073772;28;20208;-81
2020/12/26 02:12:42;;;;;;;5.78;5.15;;;3.10;79.60;;;2.00;64.32;95188.75;5073325;28;20555;-81
2020/12/26 02:15:13;;;;;;;8.93;6.10;;;3.10;79.60;;;1.98;64.34;95189.81;5072930;28;20234;-82
2020/12/26 02:17:41;;;;;;;9.18;6.28;;;3.10;79.60;;;1.98;64.40;95184.63;5060580;28;20680;-81
2020/12/26 02:20:08;;;;;;;6.40;5.70;;;3.10;79.60;;;1.99;64.52;95181.09;5076769;28;20207;-81
2020/12/26 02:22:37;;;;;;;6.95;6.18;;;3.10;79.70;;;1.98;64.29;95184.63;5072636;28;20195;-81
2020/12/26 02:25:03;;;;;;;7.15;6.28;;;3.00;79.60;;;1.99;64.37;95184.53;5056575;28;20243;-81
2020/12/26 02:27:31;;;;;;;8.73;5.80;;;3.00;79.60;;;1.99;64.35;95186.28;5056267;28;20204;-81
2020/12/26 02:29:57;;;;;;;7.50;5.97;;;3.00;79.60;;;1.99;64.49;95181.94;5072305;28;20257;-81
2020/12/26 02:32:24;;;;;;;7.60;6.00;;;3.00;79.60;;;1.99;64.65;95178.53;5057535;28;20321;-81
2020/12/26 02:34:51;;;;;;;6.47;5.43;;;3.00;79.60;;;1.99;64.33;95181.09;5056463;28;20223;-80
2020/12/26 02:37:18;;;;;;;7.80;5.78;;;3.00;79.60;;;1.97;64.10;95185.63;5076318;28;20193;-80
2020/12/26 02:39:44;;;;;;;8.25;6.40;;;3.00;79.60;;;1.96;64.26;95184.78;5059878;28;20248;-82
2020/12/26 02:42:13;;;;;;;8.85;6.40;;;3.00;79.60;;;1.97;64.46;95183.03;5062495;28;20612;-81
2020/12/26 02:44:40;;;;;;;7.50;6.43;;;3.00;79.60;;;1.96;64.22;95184.78;5086753;28;20700;-81
2020/12/26 02:47:06;;;;;;;7.95;5.63;;;3.00;79.70;;;1.94;64.26;95185.88;5058571;28;20202;-80
2020/12/26 02:49:33;;;;;;;9.13;6.10;;;3.00;79.60;;;1.95;64.06;95192.69;5076327;28;20218;-81
2020/12/26 02:52:00;;;;;;;7.70;5.57;;;3.00;79.60;;;1.94;64.17;95191.03;5072597;28;20217;-81
2020/12/26 02:54:27;;;;;;;6.07;5.40;;;3.00;79.60;;;1.92;64.10;95199.75;5039283;28;20235;-81
2020/12/26 02:56:55;;;;;;;7.80;5.97;;;3.00;79.50;;;1.89;64.03;95183.66;5039257;28;20222;-82
2020/12/26 02:59:21;;;;;;;8.02;6.03;;;3.00;79.60;;;1.83;64.18;95190.19;5060891;28;20717;-81
2020/12/26 03:01:50;;;;;;;8.00;5.85;;;3.00;79.40;;;1.82;63.99;95180.81;5091764;28;20668;-80
2020/12/26 03:04:16;;;;;;;6.95;5.43;;;2.90;79.40;;;1.79;64.13;95182.84;5059264;28;20305;-81
2020/12/26 03:06:43;;;;;;;7.80;5.60;;;2.90;79.30;;;1.75;64.09;95190.84;5075728;28;20331;-81
2020/12/26 03:09:10;;;;;;;7.70;5.55;;;2.90;79.30;;;1.77;63.96;95190.72;5075264;28;20242;-81
2020/12/26 03:11:38;;;;;;;7.53;5.75;;;2.90;79.30;;;1.76;64.06;95196.84;5071876;28;20187;-81
2020/12/26 03:14:05;;;;;;;7.03;5.18;;;2.90;79.50;;;1.75;64.32;95195.19;5085908;28;20231;-81
2020/12/26 03:16:32;;;;;;;7.95;6.30;;;2.80;79.40;;;1.73;64.04;95197.94;5075882;28;20206;-81
2020/12/26 03:18:59;;;;;;;7.22;5.70;;;2.80;79.40;;;1.74;64.11;95196.16;5058615;28;20202;-80
2020/12/26 03:21:26;;;;;;;9.50;5.75;;;2.80;79.40;;;1.71;64.14;95192.06;5075676;28;20198;-81
2020/12/26 03:23:52;;;;;;;8.00;5.75;;;2.80;79.50;;;1.75;64.45;95197.78;5058142;28;20203;-81
2020/12/26 03:26:19;;;;;;;8.30;6.18;;;2.80;79.40;;;1.73;64.16;95204.84;5075658;28;20182;-81
2020/12/26 03:28:46;;;;;;;9.82;7.00;;;2.80;80.20;;;1.68;64.03;95207.81;5074683;28;20198;-81
2020/12/26 03:31:14;;;;;;;7.57;6.00;;;2.80;79.40;;;1.70;64.14;95213.69;5074937;28;20240;-80
2020/12/26 03:33:41;;;;;;;9.80;6.35;;;2.80;79.40;;;1.68;64.13;95207.00;5075743;28;20703;-81
2020/12/26 03:36:09;;;;;;;6.57;5.47;;;2.80;79.40;;;1.67;64.11;95206.22;5075395;28;20264;-82
2020/12/26 03:38:36;;;;;;;9.20;6.53;;;2.80;79.40;;;1.68;64.37;95215.56;5058772;28;20194;-81
2020/12/26 03:41:05;;;;;;;9.57;6.82;;;2.80;79.40;;;1.69;64.14;95213.81;5058235;28;20214;-81
2020/12/26 03:43:32;;;;;;;9.05;6.03;;;2.80;79.40;;;1.70;64.24;95205.94;5092149;28;20263;-81
2020/12/26 03:45:59;;;;;;;8.43;6.43;;;2.70;79.40;;;1.64;63.99;95203.88;5074484;28;20214;-81
2020/12/26 03:48:25;;;;;;;9.02;7.20;;;2.70;79.40;;;1.65;64.13;95210.69;5058394;28;20217;-81
2020/12/26 03:50:52;;;;;;;9.65;7.35;;;2.70;79.40;;;1.67;64.23;95221.72;5075016;28;20234;-82
2020/12/26 03:53:19;;;;;;;11.00;7.22;;;2.70;79.40;;;1.68;64.26;95220.75;5058741;28;20667;-81
2020/12/26 03:55:46;;;;;;;8.80;6.55;;;2.70;79.40;;;1.69;64.18;95224.97;5074528;28;20223;-82
2020/12/26 03:58:13;;;;;;;9.65;7.55;;;2.70;79.40;;;1.67;64.06;95213.97;5058194;28;20206;-82
2020/12/26 04:00:39;;;;;;;10.38;7.47;;;2.70;79.40;;;1.70;64.40;95228.41;5074781;28;20210;-81
2020/12/26 04:03:06;;;;;;;9.88;7.65;;;2.70;79.40;;;1.68;64.22;95233.69;5057955;28;20214;-81
2020/12/26 04:05:33;;;;;;;10.88;8.20;;;2.70;79.40;;;1.66;64.36;95225.25;5091703;28;20584;-82
2020/12/26 04:08:00;;;;;;;9.20;6.82;;;2.70;79.40;;;1.65;64.07;95231.34;5074907;28;20194;-81
2020/12/26 04:10:26;;;;;;;9.55;7.07;;;2.70;79.40;;;1.66;64.10;95232.16;5074720;28;20260;-82
2020/12/26 04:12:53;;;;;;;8.80;6.82;;;2.70;79.40;;;1.63;63.88;95247.94;5057734;28;20198;-80
2020/12/26 04:15:20;;;;;;;10.75;8.18;;;2.70;79.40;;;1.51;64.03;95242.03;5074510;28;20283;-80
2020/12/26 04:17:46;;;;;;;10.02;7.80;;;2.70;79.30;;;1.52;63.84;95252.25;5057778;28;20230;-81
2020/12/26 04:20:13;;;;;;;10.52;8.50;;;2.70;79.30;;;1.49;64.09;95254.25;5086144;28;20202;-80
2020/12/26 04:22:40;;;;;;;10.68;7.82;;;2.70;79.30;;;1.50;64.05;95253.31;5052559;28;20221;-81
2020/12/26 04:25:08;;;;;;;10.23;6.95;;;2.60;79.30;;;1.50;64.09;95255.91;5071768;28;20223;-81
2020/12/26 04:27:35;;;;;;;9.88;7.65;;;2.60;79.30;;;1.44;64.45;95264.97;5048465;28;20261;-81
2020/12/26 04:30:02;;;;;;;9.93;7.65;;;2.60;79.30;;;1.45;64.39;95264.03;5061187;28;20439;-80
2020/12/26 04:32:29;;;;;;;10.40;8.10;;;2.60;79.30;;;1.43;64.41;95264.16;5069719;28;20199;-80
2020/12/26 04:34:56;;;;;;;12.23;9.05;;;2.60;79.30;;;1.40;64.22;95269.59;5057157;28;20237;-81
2020/12/26 04:37:23;;;;;;;11.15;8.07;;;2.50;79.20;;;1.41;64.42;95276.38;5054436;28;20557;-81
2020/12/26 04:39:52;;;;;;;9.50;8.00;;;2.50;79.30;;;1.42;64.29;95279.81;5075759;28;20221;-81
2020/12/26 04:42:21;;;;;;;9.68;7.63;;;2.50;79.20;;;1.37;63.95;95276.78;5070956;28;20199;-81
2020/12/26 04:44:48;;;;;;;10.80;8.15;;;2.50;79.20;;;1.34;63.87;95277.03;5071677;28;20265;-80
2020/12/26 04:47:29;;;;;;;10.60;8.15;;;2.50;79.20;;;1.36;63.87;95277.72;5074199;28;20202;-80
2020/12/26 04:50:00;;;;;;;10.02;7.35;;;2.50;79.20;;;1.34;63.82;95285.59;5073570;28;20788;-80
2020/12/26 04:52:30;;;;;;;9.18;7.13;;;2.50;79.10;;;1.33;63.96;95280.53;5073259;28;20225;-80
2020/12/26 04:55:03;;;;;;;10.23;7.18;;;2.50;79.00;;;1.33;64.15;95283.13;5090085;28;20576;-80
2020/12/26 04:57:34;;;;;;;9.02;7.50;;;2.50;79.10;;;1.26;63.75;95275.88;5058662;28;20264;-81
2020/12/26 05:00:05;;;;;;;10.63;6.85;;;2.40;78.90;;;1.18;63.37;95272.28;5057597;28;20215;-80
2020/12/26 05:02:41;;;;;;;8.13;6.07;;;2.40;78.80;;;1.22;63.35;95277.09;5061407;28;20478;-80
2020/12/26 05:05:08;;;;;;;7.30;5.50;;;2.40;78.70;;;1.21;62.98;95293.53;5077483;28;20259;-80
2020/12/26 05:07:38;;;;;;;7.70;5.57;;;2.40;78.50;;;1.16;63.27;95281.91;5095020;28;20213;-79
2020/12/26 05:10:05;;;;;;;7.72;5.03;;;2.30;78.30;;;1.13;62.22;95295.91;5076686;28;20219;-79
2020/12/26 05:12:32;;;;;;;6.25;5.38;;;2.30;77.90;;;1.08;62.07;95292.88;5059469;28;20226;-80
2020/12/26 05:15:01;;;;;;;5.13;4.63;;;2.30;77.70;;;1.01;61.47;95291.72;5092631;28;20701;-81
2020/12/26 05:17:29;;;;;;;5.30;4.25;;;2.30;77.70;;;0.98;61.46;95295.38;5073498;28;20694;-79
2020/12/26 05:19:56;;;;;;;6.85;4.95;;;2.20;77.60;;;0.92;61.30;95304.44;5048873;28;20218;-80
2020/12/26 05:22:29;;;;;;;5.88;4.40;;;2.20;77.50;;;0.87;61.42;95306.56;5061002;28;20294;-80
2020/12/26 05:25:05;;;;;;;5.10;4.57;;;2.10;77.40;;;0.82;61.51;95306.13;5059837;28;20310;-81
2020/12/26 05:27:34;;;;;;;4.65;3.95;;;2.10;77.30;;;0.74;60.98;95311.88;5094772;28;20205;-80
2020/12/26 05:30:03;;;;;;;5.57;4.72;;;2.00;77.10;;;0.68;61.12;95309.78;5077252;28;20226;-81
2020/12/26 05:32:31;;;;;;;6.55;4.80;;;2.00;77.10;;;0.63;60.99;95319.66;5077751;28;20672;-80
2020/12/26 05:35:07;;;;;;;5.78;4.45;;;1.90;77.10;;;0.57;61.12;95313.19;5077282;28;20766;-80
2020/12/26 05:37:35;;;;;;;5.30;4.20;;;1.90;77.00;;;0.53;61.24;95316.16;5077873;28;20194;-80
2020/12/26 05:40:04;;;;;;;5.00;4.20;;;1.80;77.00;;;0.51;61.08;95307.72;5093669;28;20302;-80
2020/12/26 05:42:31;;;;;;;4.70;4.30;;;1.80;77.10;;;0.48;61.55;95317.31;5077746;28;20191;-81
2020/12/26 05:45:09;;;;;;;5.50;4.40;;;1.80;77.10;;;0.44;61.53;95318.53;5060883;28;20242;-81
2020/12/26 05:47:37;;;;;;;6.18;4.32;;;1.70;77.10;;;0.39;61.46;95312.06;5073811;28;20252;-81
2020/12/26 05:50:04;;;;;;;5.88;5.00;;;1.70;77.10;;;0.41;61.37;95312.78;5073718;28;20231;-80
2020/12/26 05:52:55;;;;;;;6.45;4.80;;;1.70;77.20;;;0.40;62.07;95330.00;5059484;28;20705;-80
2020/12/26 05:55:22;;;;;;;5.18;4.47;;;1.60;77.10;;;0.35;61.51;95321.81;5073811;28;20222;-80
2020/12/26 05:57:54;;;;;;;6.50;4.22;;;1.60;77.20;;;0.35;61.59;95324.38;5062039;28;20290;-79
2020/12/26 06:00:39;;;;;;;5.47;4.00;;;1.60;77.20;;;0.34;61.68;95335.63;5057295;28;20306;-81
2020/12/26 06:03:29;;;;;;;4.95;4.22;;;1.60;78.00;;;0.30;61.26;95329.88;5068990;28;20668;-81
2020/12/26 06:05:58;;;;;;;5.75;4.00;;;1.50;77.10;;;0.27;61.51;95335.31;5077009;28;20218;-80
2020/12/26 06:08:27;;;;;;;5.13;4.60;;;1.50;77.10;;;0.23;61.54;95351.97;5076798;28;20637;-81
2020/12/26 06:10:56;;;;;;;4.68;3.97;;;1.50;77.10;;;0.22;61.76;95360.63;5076796;28;20214;-80
2020/12/26 06:13:26;;;;;;;5.63;4.50;;;1.50;77.10;;;0.21;61.52;95353.84;5093548;28;20281;-80
2020/12/26 06:16:04;;;;;;;6.38;4.35;;;1.50;77.10;;;0.15;61.26;95362.03;5076018;28;20238;-80
2020/12/26 06:18:42;;;;;;;4.80;4.10;;;1.50;76.90;;;0.09;61.43;95357.34;5077044;28;20210;-80
2020/12/26 06:21:09;;;;;;;4.70;3.75;;;1.40;76.90;;;0.06;61.42;95357.56;5076450;28;20745;-80
2020/12/26 06:23:38;;;;;;;3.90;3.30;;;1.40;76.90;;;0.05;61.62;95361.91;5076875;28;20602;-80
2020/12/26 06:26:05;;;;;;;4.55;3.80;;;1.40;76.90;;;-0.02;61.35;95369.28;5072647;28;20275;-79
2020/12/26 06:28:34;;;;;;;5.38;3.95;;;1.30;76.80;;;-0.07;61.42;95375.72;5040088;28;20202;-78
2020/12/26 06:31:05;;;;;;;5.80;4.03;;;1.30;76.70;;;-0.15;61.52;95365.16;5059165;28;20260;-80
2020/12/26 06:33:45;;;;;;;5.75;4.00;;;1.20;76.70;;;-0.21;61.57;95382.75;5077292;28;20583;-80
2020/12/26 06:36:13;;;;;;;5.60;4.00;;;1.20;76.70;;;-0.27;61.61;95375.47;5059610;28;20616;-80
2020/12/26 06:38:41;;;;;;;4.50;3.88;;;1.20;76.70;;;-0.33;61.81;95378.47;5075091;28;20307;-80
2020/12/26 06:41:17;;;;;;;4.50;3.70;;;1.10;76.60;;;-0.39;61.86;95382.34;5075882;28;20223;-79
2020/12/26 06:43:52;;;;;;;4.47;3.90;;;1.10;76.80;;;-0.44;61.69;95388.75;5056599;28;20195;-80
2020/12/26 06:46:21;;;;;;;4.25;3.85;;;1.00;76.70;;;-0.52;61.90;95397.84;5055817;28;20273;-80
2020/12/26 06:48:50;;;;;;;6.22;4.18;;;0.90;76.70;;;-0.61;62.05;95388.25;5087343;28;20195;-80
2020/12/26 06:51:36;;;;;;;6.45;4.45;;;0.80;76.70;;;-0.68;61.81;95393.00;5058905;28;20226;-80
2020/12/26 06:54:07;;;;;;;4.10;3.70;;;0.80;76.80;;;-0.70;61.85;95404.34;5075702;28;20638;-79
2020/12/26 06:56:36;;;;;;;5.10;4.53;;;0.70;76.70;;;-0.78;62.29;95407.47;5077229;28;20183;-80
2020/12/26 06:59:07;;;;;;;6.18;4.18;;;0.70;76.80;;;-0.83;62.62;95401.81;5075705;28;20275;-80
2020/12/26 07:01:37;;;;;;;6.00;4.05;;;0.60;76.80;;;-0.89;62.16;95412.56;5093189;28;20240;-80
2020/12/26 07:04:20;;;;;;;5.20;3.97;;;0.60;76.90;;;-0.96;62.56;95412.19;5074759;28;20553;-79
2020/12/26 07:06:47;;;;;;;6.03;4.50;;;0.50;77.00;;;-0.96;62.39;95419.91;5075836;28;20198;-79
2020/12/26 07:09:20;;;;;;;5.63;4.43;;;0.50;77.00;;;-0.99;62.64;95420.94;5091938;28;20684;-79
2020/12/26 07:11:51;;;;;;;7.00;4.72;;;0.40;77.00;;;-1.02;62.59;95421.16;5072610;28;20204;-79
2020/12/26 07:14:44;;;;;;;5.22;4.50;;;0.40;77.10;;;-1.01;62.65;95429.72;5058374;28;20218;-78
2020/12/26 07:17:14;;;;;;;5.13;4.47;;;0.40;77.30;;;-0.92;63.11;95423.09;5066207;28;20591;-79
2020/12/26 07:19:45;;;;;;;5.90;4.80;;;0.40;77.60;;;-0.89;63.24;95426.28;5092617;28;20684;-80
2020/12/26 07:22:22;;;;;;;5.38;4.18;;;0.50;77.70;;;-0.81;62.91;95434.28;5075150;28;20198;-79
2020/12/26 07:24:51;;;;;;;6.53;4.80;;;0.40;77.80;;;-0.77;63.00;95428.91;5058255;28;20215;-80
2020/12/26 07:27:22;;;;;;;7.72;5.15;;;0.40;77.90;;;-0.75;62.95;95412.41;5075261;28;20222;-79
2020/12/26 07:30:08;;;;;;;6.63;4.45;;;0.50;78.00;;;-0.64;62.95;95432.25;5090964;28;20228;-81
2020/12/26 07:32:55;;;;;;;6.70;4.90;;;0.50;78.00;;;-0.59;62.91;95424.19;5074577;28;20182;-78
2020/12/26 07:35:25;;;;;;;8.00;4.78;;;0.50;78.00;;;-0.59;62.75;95430.16;5044112;28;20710;-80
2020/12/26 07:37:58;;;;;;;6.05;4.97;;;0.50;77.90;;;-0.61;63.04;95432.03;5091406;28;20191;-79
2020/12/26 07:40:26;;;;;;;5.88;4.82;;;0.60;77.90;;;-0.60;62.81;95438.81;5058167;28;20231;-81
2020/12/26 07:42:55;;;;;;;7.13;4.72;;;0.60;77.80;;;-0.61;62.66;95436.34;5058878;28;20286;-80
2020/12/26 07:45:25;;;;;;;4.90;4.35;;;0.60;77.70;;;-0.62;62.36;95434.69;5075153;28;20723;-81
2020/12/26 07:47:57;;;;;;;5.50;4.50;;;0.60;77.60;;;-0.59;62.41;95440.47;5074479;28;20226;-81
2020/12/26 07:50:28;;;;;;;4.93;4.00;;;0.60;77.60;;;-0.61;62.70;95444.91;5089261;28;20218;-81
2020/12/26 07:52:59;;;;;;;6.32;4.45;;;0.60;77.50;;;-0.58;62.58;95442.09;5074391;28;20252;-81
2020/12/26 07:55:27;;;;;;;5.40;3.90;;;0.60;77.60;;;-0.58;62.64;95449.03;5056620;28;20222;-80
2020/12/26 07:58:04;;;;;;;4.80;3.83;;;0.60;77.60;;;-0.56;62.50;95447.13;5058318;28;20275;-81
2020/12/26 08:00:37;;;;;;;4.53;4.05;;;0.60;77.50;;;-0.52;62.35;95448.59;5091655;28;20252;-80
2020/12/26 08:03:11;;;;;;;5.50;4.03;;;0.70;77.70;;;-0.45;62.50;95460.09;5073548;28;20236;-81
2020/12/26 08:05:47;;;;;;;4.82;4.32;;;0.70;77.70;;;-0.37;62.44;95462.09;5074748;28;20222;-81
2020/12/26 08:08:20;;;;;;;4.30;3.90;;;0.70;77.90;;;-0.28;62.57;95461.47;5091929;28;20241;-82
2020/12/26 08:10:55;;;;;;;4.50;3.92;;;0.80;78.10;;;-0.14;62.16;95462.22;5073975;28;20254;-81
2020/12/26 08:13:21;;;;;;;5.55;3.90;;;0.80;78.00;;;-0.03;62.11;95459.66;5069609;28;20661;-81
2020/12/26 08:15:48;;;;;;;5.70;4.03;;;0.90;78.10;;;0.03;61.99;95460.97;5056528;28;20230;-81
2020/12/26 08:18:21;;;;;;;6.43;4.50;;;1.00;78.00;;;0.11;62.08;95462.03;5068267;28;20200;-81
2020/12/26 08:20:49;;;;;;;5.43;4.13;;;1.00;77.90;;;0.16;62.25;95448.81;5072056;28;20254;-80
2020/12/26 08:23:16;;;;;;;4.47;3.80;;;1.10;78.10;;;0.25;62.33;95450.69;5070238;28;20199;-81
2020/12/26 08:25:43;;;;;;;4.97;4.32;;;1.20;78.10;;;0.35;61.38;95455.97;5054532;28;20212;-81
2020/12/26 08:28:10;;;;;;;5.72;4.03;;;1.20;78.00;;;0.40;61.88;95459.03;5041519;28;20297;-80
2020/12/26 08:30:38;;;;;;;5.28;4.25;;;1.30;77.90;;;0.40;61.65;95453.88;5073936;28;20224;-81
2020/12/26 08:33:30;;;;;;;5.53;4.20;;;1.40;77.70;;;0.39;60.94;95464.31;5079441;28;20190;-80
2020/12/26 08:36:25;;;;;;;4.93;3.70;;;1.40;77.40;;;0.31;61.20;95465.69;5058140;28;20257;-80
2020/12/26 08:39:03;;;;;;;5.57;3.50;;;1.40;77.20;;;0.29;61.62;95472.75;5057801;28;20186;-81
2020/12/26 08:41:41;;;;;;;5.75;3.60;;;1.40;77.20;;;0.28;60.87;95470.25;5075690;28;20194;-80
2020/12/26 08:44:13;;;;;;;3.50;3.20;;;1.40;77.20;;;0.32;61.56;95479.44;5065285;28;20225;-80
2020/12/26 08:46:47;;;;;;;5.63;3.70;;;1.40;77.20;;;0.33;61.14;95483.66;5090939;28;20193;-80
2020/12/26 08:49:15;;;;;;;4.15;3.40;;;1.50;77.20;;;0.38;61.38;95488.47;5074750;28;20214;-80
2020/12/26 08:51:45;;;;;;;5.65;3.80;;;1.50;77.40;;;0.42;60.87;95492.47;5091354;28;20218;-81
2020/12/26 08:54:20;;;;;;;3.75;3.30;;;1.60;77.20;;;0.52;61.31;95501.16;5070841;28;20223;-80
2020/12/26 08:56:49;;;;;;;4.72;3.80;;;1.60;77.30;;;0.61;61.21;95494.47;5054653;28;20260;-80
2020/12/26 08:59:29;;;;;;;4.53;3.58;;;1.50;77.40;;;0.73;61.13;95503.06;5084349;28;20250;-80
2020/12/26 09:01:59;;;;;;;6.03;4.03;;;1.60;77.50;;;0.85;60.79;95498.72;5057550;28;20205;-79
2020/12/26 09:04:28;;;;;;;5.85;4.40;;;1.70;77.60;;;0.91;60.60;95509.41;5074250;28;20212;-79
2020/12/26 09:06:54;;;;;;;4.85;3.63;;;1.80;77.50;;;0.95;59.83;95494.50;5086037;28;20266;-79
2020/12/26 09:09:24;;;;;;;4.40;3.80;;;1.80;77.30;;;1.05;60.62;95492.84;5053894;28;20212;-79
2020/12/26 09:12:03;;;;;;;4.88;3.70;;;1.90;77.40;;;1.13;60.46;95494.03;5070928;28;20198;-79
2020/12/26 09:14:31;;;;;;;7.20;3.88;;;2.10;77.30;;;1.20;60.02;95490.84;5083161;28;20210;-80
2020/12/26 09:17:02;;;;;;;3.80;3.40;;;2.00;77.30;;;1.26;60.11;95499.88;5070499;28;20207;-80
2020/12/26 09:19:47;;;;;;;5.38;3.75;;;2.10;77.10;;;1.32;59.69;95489.06;5070446;28;20223;-79
2020/12/26 09:22:14;;;;;;;7.20;3.30;;;2.20;77.10;;;1.38;59.86;95490.31;5051732;28;20205;-80
2020/12/26 09:24:41;;;;;;;6.78;3.55;;;2.30;77.10;;;1.43;59.48;95486.44;5070404;28;20309;-80
2020/12/26 09:27:21;;;;;;;4.70;2.95;;;2.30;77.70;;;1.48;59.37;95482.66;5056060;28;20656;-81
2020/12/26 09:29:54;;;;;;;5.32;3.40;;;2.40;77.50;;;1.52;59.38;95486.66;5071672;28;20617;-80
2020/12/26 09:32:20;;;;;;;6.10;3.28;;;2.40;76.80;;;1.54;59.19;95488.19;5051917;28;20268;-80
2020/12/26 09:34:47;;;;;;;4.45;2.90;;;2.50;76.70;;;1.60;59.67;95484.31;5054845;28;20234;-81
2020/12/26 09:37:15;;;;;;;3.78;3.25;;;2.50;76.80;;;1.60;59.11;95499.81;5068884;28;20198;-81
2020/12/26 09:39:41;;;;;;;3.80;3.35;;;2.60;76.60;;;1.59;58.72;95493.00;5066959;28;20321;-80
2020/12/26 09:42:08;;;;;;;3.78;3.20;;;2.60;76.40;;;1.52;58.24;95497.81;5073914;28;20191;-82
2020/12/26 09:44:35;;;;;;;4.10;3.65;;;2.60;75.90;;;1.44;58.69;95482.09;5070662;28;20580;-80
2020/12/26 09:47:04;;;;;;;4.18;3.15;;;2.50;76.10;;;1.53;59.25;95494.31;5076773;28;20203;-83
2020/12/26 09:49:31;;;;;;;3.85;3.42;;;2.60;76.10;;;1.56;59.40;95480.31;5073767;28;20571;-80
2020/12/26 09:51:57;;;;;;;4.45;3.10;;;2.60;76.20;;;1.59;59.20;95491.22;5075677;28;20243;-80
2020/12/26 09:54:25;;;;;;;4.22;3.10;;;2.60;76.30;;;1.62;58.87;95484.97;5055719;28;20219;-80
2020/12/26 09:56:54;;;;;;;4.05;2.72;;;2.60;76.00;;;1.67;59.23;95487.22;5071753;28;20228;-80
2020/12/26 09:59:21;;;;;;;3.72;3.08;;;2.60;76.10;;;1.68;59.29;95483.69;5073128;28;20684;-81
2020/12/26 10:01:48;;;;;;;3.25;2.80;;;2.60;76.20;;;1.69;59.16;95475.78;5074621;28;20206;-81
2020/12/26 10:04:14;;;;;;;4.00;3.08;;;2.70;76.10;;;1.68;58.35;95479.31;5077134;28;20574;-80
2020/12/26 10:06:43;;;;;;;4.13;3.08;;;2.70;75.90;;;1.73;59.02;95479.78;5076320;28;20297;-81
2020/12/26 10:09:10;;;;;;;4.35;3.10;;;2.70;75.90;;;1.76;58.23;95473.56;5092969;28;20696;-82
2020/12/26 10:11:38;;;;;;;4.68;3.10;;;2.80;75.90;;;1.85;58.36;95487.50;5076175;28;20199;-80
2020/12/26 10:14:05;;;;;;;3.97;2.72;;;2.80;75.90;;;1.92;59.05;95481.69;5060627;28;20572;-79
2020/12/26 10:16:31;;;;;;;4.78;2.80;;;2.80;76.00;;;2.01;58.15;95487.09;5070948;28;20684;-81
2020/12/26 10:19:00;;;;;;;3.30;2.92;;;2.90;76.10;;;2.00;56.71;95482.84;5069712;28;20202;-80
2020/12/26 10:21:27;;;;;;;4.05;2.90;;;2.90;75.50;;;2.06;58.14;95480.59;5072714;28;20222;-81
2020/12/26 10:23:54;;;;;;;4.97;2.95;;;2.90;75.50;;;2.10;57.80;95467.41;5071559;28;20616;-79
2020/12/26 10:26:21;;;;;;;3.22;2.60;;;3.00;75.70;;;2.20;58.15;95471.69;5049627;28;20204;-82
2020/12/26 10:28:47;;;;;;;4.93;3.28;;;3.00;75.50;;;2.16;56.61;95477.25;5054435;28;20289;-81
2020/12/26 10:31:14;;;;;;;3.92;2.80;;;3.10;75.00;;;2.08;56.58;95468.34;5040307;28;20747;-80
2020/12/26 10:33:42;;;;;;;4.82;2.90;;;3.10;75.00;;;2.05;57.52;95460.00;5057054;28;20211;-80
2020/12/26 10:36:10;;;;;;;3.60;2.85;;;3.00;75.00;;;2.07;57.81;95464.09;5072042;28;20222;-79
2020/12/26 10:38:37;;;;;;;4.72;2.67;;;3.10;75.10;;;2.05;56.79;95470.34;5053420;28;20200;-81
2020/12/26 10:41:05;;;;;;;7.53;5.10;;;3.10;75.00;;;2.02;57.29;95460.28;5070802;28;20597;-78